createdAt,value
2023-05-01T00:00:44.502Z,14.05
2023-05-01T00:01:44.574Z,14.08
2023-05-01T00:02:44.610Z,14.02
2023-05-01T00:03:44.772Z,14.01
2023-05-01T00:04:44.652Z,14.00
2023-05-01T00:05:44.621Z,13.97
2023-05-01T00:06:44.792Z,13.94
2023-05-01T00:07:44.682Z,13.87
2023-05-01T00:08:44.700Z,13.87
2023-05-01T00:09:44.713Z,13.88
2023-05-01T00:10:44.750Z,13.84
2023-05-01T00:11:44.813Z,13.85
2023-05-01T00:12:44.825Z,13.88
2023-05-01T00:13:44.810Z,13.90
2023-05-01T00:14:44.850Z,13.60
2023-05-01T00:15:44.848Z,13.74
2023-05-01T00:16:44.927Z,13.80
2023-05-01T00:17:45.031Z,13.81
2023-05-01T00:18:45.000Z,13.81
2023-05-01T00:19:45.041Z,13.80
2023-05-01T00:20:45.020Z,13.78
2023-05-01T00:21:45.108Z,13.78
2023-05-01T00:22:45.113Z,13.76
2023-05-01T00:23:45.194Z,13.78
2023-05-01T00:24:45.171Z,13.80
2023-05-01T00:25:45.175Z,13.82
2023-05-01T00:26:45.173Z,13.85
2023-05-01T00:27:45.180Z,13.88
2023-05-01T00:28:45.274Z,13.67
2023-05-01T00:29:45.256Z,13.74
2023-05-01T00:30:45.268Z,13.80
2023-05-01T00:31:45.466Z,13.80
2023-05-01T00:32:45.363Z,13.81
2023-05-01T00:33:45.394Z,13.81
2023-05-01T00:34:45.398Z,13.81
2023-05-01T00:35:45.448Z,13.84
2023-05-01T00:36:45.941Z,13.84
2023-05-01T00:37:45.555Z,13.85
2023-05-01T00:38:45.633Z,13.85
2023-05-01T00:39:45.647Z,13.82
2023-05-01T00:40:45.679Z,13.82
2023-05-01T00:41:45.701Z,13.84
2023-05-01T00:42:45.704Z,13.81
2023-05-01T00:43:45.776Z,13.76
2023-05-01T00:44:45.781Z,13.68
2023-05-01T00:45:45.877Z,13.70
2023-05-01T00:46:45.924Z,13.70
2023-05-01T00:47:45.959Z,13.71
2023-05-01T00:48:46.005Z,13.70
2023-05-01T00:49:46.020Z,13.71
2023-05-01T00:50:46.075Z,13.74
2023-05-01T00:51:46.140Z,13.76
2023-05-01T00:52:46.136Z,13.74
2023-05-01T00:53:46.178Z,13.76
2023-05-01T00:54:46.181Z,13.73
2023-05-01T00:55:46.273Z,13.65
2023-05-01T00:56:46.274Z,13.67
2023-05-01T00:57:46.313Z,13.68
2023-05-01T00:58:46.334Z,13.71
2023-05-01T00:59:46.348Z,13.70
2023-05-01T01:00:46.389Z,13.70
2023-05-01T01:01:46.665Z,13.71
2023-05-01T01:02:46.483Z,13.73
2023-05-01T01:03:46.513Z,13.68
2023-05-01T01:04:46.585Z,13.63
2023-05-01T01:05:46.554Z,13.53
2023-05-01T01:06:46.629Z,13.57
2023-05-01T01:07:46.560Z,13.61
2023-05-01T01:08:46.589Z,13.51
2023-05-01T01:09:46.625Z,13.60
2023-05-01T01:10:46.669Z,13.64
2023-05-01T01:11:46.713Z,13.67
2023-05-01T01:12:46.791Z,13.63
2023-05-01T01:13:46.782Z,13.67
2023-05-01T01:14:46.851Z,13.73
2023-05-01T01:15:46.859Z,13.73
2023-05-01T01:16:46.873Z,13.77
2023-05-01T01:17:46.935Z,13.74
2023-05-01T01:18:46.867Z,13.76
2023-05-01T01:19:46.881Z,13.74
2023-05-01T01:20:46.900Z,13.76
2023-05-01T01:21:46.955Z,13.71
2023-05-01T01:22:46.981Z,13.65
2023-05-01T01:23:47.031Z,13.70
2023-05-01T01:24:47.018Z,13.67
2023-05-01T01:25:47.081Z,13.67
2023-05-01T01:26:47.074Z,13.67
2023-05-01T01:27:47.176Z,13.61
2023-05-01T01:28:47.169Z,13.61
2023-05-01T01:29:47.208Z,13.67
2023-05-01T01:30:47.194Z,13.64
2023-05-01T01:31:47.215Z,13.67
2023-05-01T01:32:47.245Z,13.68
2023-05-01T01:33:47.279Z,13.67
2023-05-01T01:34:47.297Z,13.68
2023-05-01T01:35:47.292Z,13.65
2023-05-01T01:36:47.359Z,13.64
2023-05-01T01:37:47.379Z,13.51
2023-05-01T01:38:47.429Z,13.53
2023-05-01T01:39:47.434Z,13.04
2023-05-01T01:40:47.493Z,12.73
2023-05-01T01:41:47.532Z,12.36
2023-05-01T01:42:47.558Z,12.63
2023-05-01T01:43:47.559Z,12.78
2023-05-01T01:44:47.678Z,12.87
2023-05-01T01:45:47.731Z,13.02
2023-05-01T01:46:47.960Z,13.08
2023-05-01T01:47:47.866Z,13.17
2023-05-01T01:48:47.849Z,13.08
2023-05-01T01:49:47.869Z,13.10
2023-05-01T01:50:47.881Z,13.14
2023-05-01T01:51:47.905Z,13.23
2023-05-01T01:52:47.897Z,13.10
2023-05-01T01:53:47.877Z,12.78
2023-05-01T01:54:47.961Z,12.93
2023-05-01T01:55:47.946Z,12.70
2023-05-01T01:56:47.982Z,12.69
2023-05-01T01:57:48.009Z,12.31
2023-05-01T01:58:48.047Z,12.49
2023-05-01T01:59:48.091Z,12.35
2023-05-01T02:00:48.074Z,12.22
2023-05-01T02:01:48.195Z,12.28
2023-05-01T02:02:48.140Z,12.22
2023-05-01T02:03:48.145Z,11.92
2023-05-01T02:04:48.100Z,11.90
2023-05-01T02:05:48.186Z,11.86
2023-05-01T02:06:48.289Z,11.99
2023-05-01T02:07:48.193Z,12.18
2023-05-01T02:08:48.192Z,12.32
2023-05-01T02:09:48.282Z,12.45
2023-05-01T02:10:48.316Z,12.56
2023-05-01T02:11:48.336Z,12.63
2023-05-01T02:12:48.307Z,12.56
2023-05-01T02:13:48.321Z,12.29
2023-05-01T02:14:48.383Z,12.33
2023-05-01T02:15:48.456Z,12.52
2023-05-01T02:16:48.459Z,12.62
2023-05-01T02:17:48.515Z,12.72
2023-05-01T02:18:48.523Z,12.64
2023-05-01T02:19:48.583Z,12.66
2023-05-01T02:20:48.583Z,12.72
2023-05-01T02:21:48.660Z,12.79
2023-05-01T02:22:48.645Z,12.84
2023-05-01T02:23:48.684Z,12.87
2023-05-01T02:24:50.408Z,12.92
2023-05-01T02:25:48.683Z,13.03
2023-05-01T02:26:48.828Z,13.08
2023-05-01T02:27:48.762Z,13.16
2023-05-01T02:28:48.762Z,13.20
2023-05-01T02:29:48.764Z,13.20
2023-05-01T02:30:48.809Z,13.16
2023-05-01T02:31:48.922Z,13.19
2023-05-01T02:32:48.915Z,13.23
2023-05-01T02:33:49.836Z,13.19
2023-05-01T02:34:48.867Z,12.55
2023-05-01T02:35:48.898Z,12.69
2023-05-01T02:36:48.938Z,12.70
2023-05-01T02:37:48.938Z,12.87
2023-05-01T02:38:48.960Z,12.99
2023-05-01T02:39:48.964Z,13.06
2023-05-01T02:40:49.019Z,13.14
2023-05-01T02:41:49.063Z,13.21
2023-05-01T02:42:49.043Z,13.26
2023-05-01T02:43:49.064Z,13.30
2023-05-01T02:44:49.085Z,13.36
2023-05-01T02:45:49.131Z,13.40
2023-05-01T02:46:49.210Z,13.43
2023-05-01T02:47:49.223Z,13.29
2023-05-01T02:48:49.159Z,13.00
2023-05-01T02:49:49.170Z,13.21
2023-05-01T02:50:49.172Z,13.31
2023-05-01T02:51:49.241Z,13.37
2023-05-01T02:52:49.214Z,13.39
2023-05-01T02:53:49.227Z,13.43
2023-05-01T02:54:49.274Z,13.47
2023-05-01T02:55:49.317Z,13.49
2023-05-01T02:56:49.330Z,13.53
2023-05-01T02:57:49.324Z,13.55
2023-05-01T02:58:49.338Z,13.58
2023-05-01T02:59:49.380Z,13.47
2023-05-01T03:00:49.509Z,13.49
2023-05-01T03:01:49.505Z,13.49
2023-05-01T03:02:49.446Z,13.37
2023-05-01T03:03:49.455Z,13.37
2023-05-01T03:04:49.497Z,13.34
2023-05-01T03:05:49.507Z,12.78
2023-05-01T03:06:49.651Z,12.59
2023-05-01T03:07:49.596Z,12.29
2023-05-01T03:08:49.619Z,12.21
2023-05-01T03:09:49.593Z,12.08
2023-05-01T03:10:49.590Z,12.32
2023-05-01T03:11:49.631Z,12.53
2023-05-01T03:12:49.661Z,12.63
2023-05-01T03:13:49.659Z,12.78
2023-05-01T03:14:49.690Z,12.86
2023-05-01T03:15:49.705Z,12.80
2023-05-01T03:16:49.832Z,12.90
2023-05-01T03:17:49.905Z,12.93
2023-05-01T03:18:49.819Z,12.96
2023-05-01T03:19:49.852Z,13.00
2023-05-01T03:20:49.898Z,13.07
2023-05-01T03:21:49.930Z,13.06
2023-05-01T03:22:49.987Z,13.03
2023-05-01T03:23:50.007Z,13.08
2023-05-01T03:24:50.021Z,12.89
2023-05-01T03:25:50.070Z,13.02
2023-05-01T03:26:50.146Z,13.11
2023-05-01T03:27:50.171Z,12.96
2023-05-01T03:28:50.187Z,12.99
2023-05-01T03:29:50.223Z,12.69
2023-05-01T03:30:50.321Z,12.23
2023-05-01T03:31:50.347Z,12.31
2023-05-01T03:32:50.371Z,12.45
2023-05-01T03:33:50.375Z,12.56
2023-05-01T03:34:50.452Z,12.42
2023-05-01T03:35:50.395Z,12.21
2023-05-01T03:36:50.404Z,11.96
2023-05-01T03:37:50.407Z,11.82
2023-05-01T03:38:50.468Z,11.84
2023-05-01T03:39:50.508Z,11.79
2023-05-01T03:40:50.530Z,11.99
2023-05-01T03:41:50.560Z,12.25
2023-05-01T03:42:50.545Z,12.45
2023-05-01T03:43:50.600Z,12.60
2023-05-01T03:44:50.637Z,12.69
2023-05-01T03:45:50.611Z,12.64
2023-05-01T03:46:50.643Z,12.75
2023-05-01T03:47:50.688Z,12.76
2023-05-01T03:48:50.694Z,12.73
2023-05-01T03:49:50.782Z,12.83
2023-05-01T03:50:50.807Z,12.92
2023-05-01T03:51:50.852Z,13.07
2023-05-01T03:52:50.879Z,12.79
2023-05-01T03:53:50.903Z,12.83
2023-05-01T03:54:50.953Z,12.96
2023-05-01T03:55:50.949Z,12.96
2023-05-01T03:56:51.020Z,13.04
2023-05-01T03:57:51.056Z,13.10
2023-05-01T03:58:51.119Z,13.14
2023-05-01T03:59:51.193Z,13.21
2023-05-01T04:00:51.204Z,13.26
2023-05-01T04:01:51.322Z,13.27
2023-05-01T04:02:51.517Z,13.33
2023-05-01T04:03:51.341Z,13.40
2023-05-01T04:04:51.335Z,13.40
2023-05-01T04:05:51.361Z,13.37
2023-05-01T04:06:51.539Z,13.43
2023-05-01T04:07:51.430Z,12.94
2023-05-01T04:08:51.491Z,13.13
2023-05-01T04:09:51.514Z,13.16
2023-05-01T04:10:51.555Z,13.11
2023-05-01T04:11:51.606Z,13.10
2023-05-01T04:12:51.646Z,13.13
2023-05-01T04:13:51.631Z,13.11
2023-05-01T04:14:51.689Z,13.02
2023-05-01T04:15:51.753Z,12.80
2023-05-01T04:16:51.777Z,12.72
2023-05-01T04:17:51.867Z,12.48
2023-05-01T04:18:51.853Z,12.15
2023-05-01T04:19:51.861Z,12.28
2023-05-01T04:20:51.860Z,12.43
2023-05-01T04:21:51.883Z,12.40
2023-05-01T04:22:51.917Z,12.60
2023-05-01T04:23:51.955Z,12.62
2023-05-01T04:24:52.003Z,12.70
2023-05-01T04:25:52.014Z,12.45
2023-05-01T04:26:52.056Z,12.39
2023-05-01T04:27:52.068Z,12.53
2023-05-01T04:28:52.116Z,12.73
2023-05-01T04:29:52.244Z,12.90
2023-05-01T04:30:52.178Z,12.80
2023-05-01T04:31:52.346Z,12.90
2023-05-01T04:32:52.353Z,12.96
2023-05-01T04:33:52.339Z,13.06
2023-05-01T04:34:52.379Z,12.97
2023-05-01T04:35:52.451Z,12.64
2023-05-01T04:36:52.474Z,12.23
2023-05-01T04:37:52.468Z,12.48
2023-05-01T04:38:52.511Z,12.63
2023-05-01T04:39:52.502Z,12.79
2023-05-01T04:40:52.565Z,12.90
2023-05-01T04:41:52.569Z,13.04
2023-05-01T04:42:52.527Z,13.06
2023-05-01T04:43:52.583Z,13.19
2023-05-01T04:44:52.606Z,13.16
2023-05-01T04:45:52.675Z,13.24
2023-05-01T04:46:52.843Z,13.29
2023-05-01T04:47:52.849Z,13.29
2023-05-01T04:48:52.811Z,12.80
2023-05-01T04:49:52.903Z,13.02
2023-05-01T04:50:52.910Z,13.23
2023-05-01T04:51:52.933Z,13.14
2023-05-01T04:52:52.975Z,12.60
2023-05-01T04:53:52.995Z,12.80
2023-05-01T04:54:53.024Z,12.92
2023-05-01T04:55:53.042Z,13.03
2023-05-01T04:56:53.113Z,12.76
2023-05-01T04:57:53.113Z,12.78
2023-05-01T04:58:53.140Z,12.94
2023-05-01T04:59:53.202Z,13.02
2023-05-01T05:00:53.238Z,13.23
2023-05-01T05:01:53.416Z,13.11
2023-05-01T05:02:53.404Z,13.24
2023-05-01T05:03:53.608Z,13.24
2023-05-01T05:04:53.445Z,13.13
2023-05-01T05:05:53.470Z,12.89
2023-05-01T05:06:53.584Z,13.10
2023-05-01T05:07:53.566Z,13.26
2023-05-01T05:08:53.596Z,13.40
2023-05-01T05:09:53.636Z,13.53
2023-05-01T05:10:53.612Z,13.60
2023-05-01T05:11:53.692Z,13.74
2023-05-01T05:12:53.724Z,13.85
2023-05-01T05:13:53.730Z,13.94
2023-05-01T05:14:53.788Z,14.00
2023-05-01T05:15:53.836Z,14.08
2023-05-01T05:16:53.935Z,14.10
2023-05-01T05:17:55.892Z,14.18
2023-05-01T05:18:53.851Z,14.24
2023-05-01T05:19:53.934Z,14.29
2023-05-01T05:20:53.829Z,14.34
2023-05-01T05:21:53.832Z,14.42
2023-05-01T05:22:53.819Z,14.47
2023-05-01T05:23:53.844Z,14.52
2023-05-01T05:24:53.797Z,14.55
2023-05-01T05:25:53.780Z,14.59
2023-05-01T05:26:53.783Z,14.57
2023-05-01T05:27:53.794Z,14.22
2023-05-01T05:28:53.765Z,13.97
2023-05-01T05:29:53.844Z,13.74
2023-05-01T05:30:53.740Z,13.84
2023-05-01T05:31:53.795Z,13.82
2023-05-01T05:32:53.776Z,14.07
2023-05-01T05:33:53.738Z,14.20
2023-05-01T05:34:53.721Z,13.71
2023-05-01T05:35:53.698Z,13.78
2023-05-01T05:36:53.684Z,13.41
2023-05-01T05:37:53.713Z,13.67
2023-05-01T05:38:53.672Z,13.67
2023-05-01T05:39:53.821Z,13.80
2023-05-01T05:40:53.679Z,13.43
2023-05-01T05:41:53.691Z,13.16
2023-05-01T05:42:53.692Z,12.93
2023-05-01T05:43:53.659Z,13.33
2023-05-01T05:44:53.686Z,13.27
2023-05-01T05:45:53.739Z,13.04
2023-05-01T05:46:53.658Z,13.10
2023-05-01T05:47:53.656Z,13.19
2023-05-01T05:48:53.636Z,13.46
2023-05-01T05:49:53.815Z,13.43
2023-05-01T05:50:53.597Z,13.31
2023-05-01T05:51:53.599Z,13.24
2023-05-01T05:52:53.571Z,13.60
2023-05-01T05:53:53.610Z,13.67
2023-05-01T05:54:53.570Z,13.68
2023-05-01T05:55:53.596Z,13.70
2023-05-01T05:56:53.583Z,13.76
2023-05-01T05:57:53.567Z,13.76
2023-05-01T05:58:53.549Z,13.77
2023-05-01T05:59:53.614Z,13.94
2023-05-01T06:00:53.524Z,14.11
2023-05-01T06:01:53.544Z,14.29
2023-05-01T06:02:53.636Z,14.51
2023-05-01T06:03:53.552Z,14.61
2023-05-01T06:04:53.498Z,14.74
2023-05-01T06:05:53.557Z,14.59
2023-05-01T06:06:53.603Z,14.78
2023-05-01T06:07:53.496Z,14.94
2023-05-01T06:08:53.454Z,15.08
2023-05-01T06:09:53.637Z,15.21
2023-05-01T06:10:53.480Z,15.33
2023-05-01T06:11:53.444Z,15.43
2023-05-01T06:13:01.291Z,15.49
2023-05-01T06:13:54.437Z,15.49
2023-05-01T06:14:53.438Z,15.59
2023-05-01T06:15:53.502Z,15.53
2023-05-01T06:16:53.430Z,15.46
2023-05-01T06:17:53.494Z,15.69
2023-05-01T06:18:53.429Z,15.83
2023-05-01T06:19:53.449Z,15.87
2023-05-01T06:20:53.377Z,15.65
2023-05-01T06:21:53.413Z,15.90
2023-05-01T06:22:53.367Z,16.06
2023-05-01T06:23:53.388Z,16.09
2023-05-01T06:24:53.341Z,15.54
2023-05-01T06:25:53.371Z,15.25
2023-05-01T06:26:53.346Z,15.21
2023-05-01T06:27:53.392Z,15.29
2023-05-01T06:28:53.375Z,14.78
2023-05-01T06:29:53.561Z,14.98
2023-05-01T06:30:53.530Z,14.32
2023-05-01T06:31:53.516Z,14.72
2023-05-01T06:32:53.587Z,15.12
2023-05-01T06:33:53.573Z,15.38
2023-05-01T06:34:53.572Z,15.63
2023-05-01T06:35:53.686Z,15.45
2023-05-01T06:36:53.695Z,15.06
2023-05-01T06:37:53.737Z,15.08
2023-05-01T06:38:53.786Z,15.09
2023-05-01T06:39:54.191Z,15.33
2023-05-01T06:40:53.794Z,15.73
2023-05-01T06:41:53.844Z,15.59
2023-05-01T06:42:53.794Z,15.23
2023-05-01T06:43:53.833Z,15.35
2023-05-01T06:44:53.847Z,15.56
2023-05-01T06:45:53.962Z,15.22
2023-05-01T06:46:54.027Z,15.56
2023-05-01T06:47:54.132Z,15.93
2023-05-01T06:48:54.080Z,15.46
2023-05-01T06:49:54.403Z,15.50
2023-05-01T06:50:54.171Z,15.50
2023-05-01T06:51:54.196Z,15.73
2023-05-01T06:52:54.234Z,16.09
2023-05-01T06:53:54.241Z,16.19
2023-05-01T06:54:54.266Z,16.48
2023-05-01T06:55:54.266Z,16.21
2023-05-01T06:56:54.357Z,16.54
2023-05-01T06:57:54.404Z,16.71
2023-05-01T06:58:54.429Z,16.74
2023-05-01T06:59:54.579Z,16.67
2023-05-01T07:00:54.615Z,16.77
2023-05-01T07:01:54.487Z,16.81
2023-05-01T07:02:54.621Z,16.98
2023-05-01T07:03:54.543Z,17.13
2023-05-01T07:04:54.579Z,17.25
2023-05-01T07:05:54.588Z,17.38
2023-05-01T07:06:54.726Z,17.51
2023-05-01T07:08:01.165Z,17.62
2023-05-01T07:08:55.637Z,17.72
2023-05-01T07:09:54.944Z,17.46
2023-05-01T07:10:54.662Z,17.62
2023-05-01T07:11:54.633Z,17.69
2023-05-01T07:12:54.629Z,16.68
2023-05-01T07:13:54.606Z,16.09
2023-05-01T07:14:54.625Z,16.41
2023-05-01T07:15:54.785Z,16.24
2023-05-01T07:16:54.615Z,16.00
2023-05-01T07:17:54.618Z,15.23
2023-05-01T07:18:54.611Z,15.94
2023-05-01T07:19:54.770Z,15.42
2023-05-01T07:20:54.585Z,14.74
2023-05-01T07:21:54.649Z,14.49
2023-05-01T07:22:54.625Z,14.94
2023-05-01T07:23:54.678Z,15.45
2023-05-01T07:24:54.693Z,15.79
2023-05-01T07:25:54.716Z,16.10
2023-05-01T07:26:54.790Z,16.40
2023-05-01T07:27:54.846Z,16.61
2023-05-01T07:28:54.918Z,16.60
2023-05-01T07:29:55.045Z,15.74
2023-05-01T07:31:02.557Z,15.83
2023-05-01T07:31:54.984Z,16.04
2023-05-01T07:32:54.973Z,16.37
2023-05-01T07:33:54.947Z,16.67
2023-05-01T07:34:56.491Z,16.87
2023-05-01T07:35:54.897Z,17.05
2023-05-01T07:36:54.902Z,17.17
2023-05-01T07:37:54.887Z,16.88
2023-05-01T07:38:54.903Z,16.60
2023-05-01T07:39:55.114Z,16.61
2023-05-01T07:40:54.878Z,16.85
2023-05-01T07:41:54.885Z,16.41
2023-05-01T07:42:54.889Z,16.85
2023-05-01T07:43:54.863Z,17.03
2023-05-01T07:44:54.853Z,17.00
2023-05-01T07:45:54.871Z,17.27
2023-05-01T07:46:54.852Z,17.37
2023-05-01T07:47:54.841Z,17.13
2023-05-01T07:48:54.836Z,16.81
2023-05-01T07:49:55.105Z,16.82
2023-05-01T07:50:54.778Z,16.53
2023-05-01T07:51:54.805Z,16.88
2023-05-01T07:52:54.798Z,17.11
2023-05-01T07:53:54.838Z,16.94
2023-05-01T07:54:54.941Z,16.80
2023-05-01T07:55:54.977Z,17.21
2023-05-01T07:56:54.995Z,17.45
2023-05-01T07:57:55.085Z,17.75
2023-05-01T07:58:55.067Z,18.05
2023-05-01T07:59:55.308Z,18.05
2023-05-01T08:00:55.138Z,18.26
2023-05-01T08:01:55.199Z,18.39
2023-05-01T08:02:55.505Z,18.59
2023-05-01T08:03:55.359Z,18.32
2023-05-01T08:04:55.295Z,18.42
2023-05-01T08:05:55.260Z,18.79
2023-05-01T08:06:55.364Z,18.92
2023-05-01T08:07:55.292Z,19.24
2023-05-01T08:08:55.326Z,19.04
2023-05-01T08:09:57.048Z,19.41
2023-05-01T08:10:55.329Z,19.54
2023-05-01T08:11:55.373Z,19.67
2023-05-01T08:12:55.348Z,19.73
2023-05-01T08:13:55.296Z,19.89
2023-05-01T08:14:55.374Z,19.97
2023-05-01T08:15:55.382Z,18.35
2023-05-01T08:16:55.442Z,18.76
2023-05-01T08:17:55.306Z,18.83
2023-05-01T08:18:55.298Z,18.87
2023-05-01T08:21:14.505Z,19.74
2023-05-01T08:22:14.522Z,20.01
2023-05-01T08:23:14.517Z,20.31
2023-05-01T08:24:14.469Z,20.45
2023-05-01T08:25:14.487Z,20.64
2023-05-01T08:26:14.455Z,20.88
2023-05-01T08:27:14.484Z,19.63
2023-05-01T08:28:14.451Z,20.01
2023-05-01T08:29:14.456Z,20.45
2023-05-01T08:30:14.445Z,20.79
2023-05-01T08:31:14.485Z,20.44
2023-05-01T08:32:14.484Z,19.58
2023-05-01T08:33:14.527Z,19.35
2023-05-01T08:34:14.441Z,19.95
2023-05-01T08:35:14.402Z,20.17
2023-05-01T08:36:14.415Z,20.59
2023-05-01T08:37:14.417Z,20.88
2023-05-01T08:38:14.422Z,20.60
2023-05-01T08:39:14.385Z,19.56
2023-05-01T08:40:14.402Z,19.41
2023-05-01T08:41:14.414Z,19.63
2023-05-01T08:42:14.370Z,19.95
2023-05-01T08:43:14.359Z,20.20
2023-05-01T08:44:14.349Z,20.48
2023-05-01T08:45:14.376Z,20.54
2023-05-01T08:46:14.330Z,20.64
2023-05-01T08:47:14.439Z,20.71
2023-05-01T08:48:14.319Z,20.78
2023-05-01T08:49:14.341Z,21.01
2023-05-01T08:50:14.404Z,21.18
2023-05-01T08:51:14.284Z,21.39
2023-05-01T08:52:14.318Z,21.53
2023-05-01T08:53:14.318Z,21.69
2023-05-01T08:54:14.310Z,21.83
2023-05-01T08:55:14.309Z,21.97
2023-05-01T08:56:14.275Z,21.85
2023-05-01T08:57:14.251Z,21.39
2023-05-01T08:58:14.256Z,21.16
2023-05-01T08:59:14.246Z,21.07
2023-05-01T09:00:14.263Z,20.95
2023-05-01T09:01:14.260Z,21.05
2023-05-01T09:02:14.235Z,20.96
2023-05-01T09:03:14.377Z,20.81
2023-05-01T09:04:14.252Z,21.48
2023-05-01T09:05:14.200Z,20.82
2023-05-01T09:06:14.226Z,21.10
2023-05-01T09:07:14.194Z,21.38
2023-05-01T09:08:14.204Z,21.74
2023-05-01T09:09:14.216Z,21.93
2023-05-01T09:10:14.271Z,22.23
2023-05-01T09:11:14.290Z,22.48
2023-05-01T09:12:14.331Z,22.36
2023-05-01T09:13:14.385Z,22.16
2023-05-01T09:14:14.401Z,22.21
2023-05-01T09:15:14.431Z,22.60
2023-05-01T09:16:14.491Z,20.82
2023-05-01T09:17:14.470Z,21.74
2023-05-01T09:18:14.587Z,21.87
2023-05-01T09:19:14.521Z,21.72
2023-05-01T09:20:14.578Z,21.62
2023-05-01T09:21:14.607Z,21.54
2023-05-01T09:22:14.609Z,21.54
2023-05-01T09:23:14.657Z,22.00
2023-05-01T09:24:14.660Z,22.44
2023-05-01T09:25:14.718Z,22.80
2023-05-01T09:26:14.690Z,23.14
2023-05-01T09:27:14.853Z,22.47
2023-05-01T09:28:14.765Z,23.14
2023-05-01T09:29:14.798Z,23.15
2023-05-01T09:30:14.803Z,23.35
2023-05-01T09:31:14.783Z,23.74
2023-05-01T09:32:14.947Z,24.11
2023-05-01T09:33:14.901Z,24.25
2023-05-01T09:34:14.900Z,24.19
2023-05-01T09:35:14.990Z,24.29
2023-05-01T09:36:14.956Z,24.09
2023-05-01T09:37:15.026Z,24.25
2023-05-01T09:38:15.480Z,24.63
2023-05-01T09:39:15.074Z,24.79
2023-05-01T09:40:15.080Z,25.12
2023-05-01T09:41:15.121Z,25.26
2023-05-01T09:42:15.154Z,25.59
2023-05-01T09:43:15.163Z,25.93
2023-05-01T09:44:15.221Z,25.69
2023-05-01T09:45:15.280Z,24.69
2023-05-01T09:46:15.350Z,23.57
2023-05-01T09:47:15.286Z,24.46
2023-05-01T09:48:15.300Z,24.43
2023-05-01T09:49:15.335Z,24.89
2023-05-01T09:50:15.419Z,25.14
2023-05-01T09:51:15.415Z,25.34
2023-05-01T09:52:15.470Z,25.63
2023-05-01T09:53:15.538Z,25.91
2023-05-01T09:54:15.541Z,26.03
2023-05-01T09:55:15.593Z,25.97
2023-05-01T09:56:15.606Z,25.76
2023-05-01T09:57:15.680Z,25.32
2023-05-01T09:58:15.674Z,24.60
2023-05-01T09:59:15.681Z,25.22
2023-05-01T10:00:15.652Z,25.38
2023-05-01T10:01:15.720Z,25.20
2023-05-01T10:02:15.613Z,24.12
2023-05-01T10:03:15.723Z,23.68
2023-05-01T10:04:15.620Z,24.49
2023-05-01T10:05:15.606Z,24.90
2023-05-01T10:06:15.615Z,24.60
2023-05-01T10:07:15.604Z,24.53
2023-05-01T10:08:15.593Z,24.80
2023-05-01T10:09:15.589Z,24.11
2023-05-01T10:10:15.624Z,24.45
2023-05-01T10:11:15.583Z,24.53
2023-05-01T10:12:15.586Z,25.06
2023-05-01T10:13:15.568Z,24.96
2023-05-01T10:14:15.621Z,23.99
2023-05-01T10:15:24.800Z,24.38
2023-05-01T10:16:16.656Z,24.04
2023-05-01T10:17:15.845Z,23.21
2023-05-01T10:18:15.726Z,22.70
2023-05-01T10:19:15.713Z,23.13
2023-05-01T10:20:15.642Z,23.62
2023-05-01T10:21:15.633Z,24.08
2023-05-01T10:22:15.623Z,22.70
2023-05-01T10:23:15.634Z,23.19
2023-05-01T10:24:15.582Z,22.54
2023-05-01T10:25:15.594Z,22.63
2023-05-01T10:26:15.618Z,22.17
2023-05-01T10:27:15.566Z,22.31
2023-05-01T10:28:15.578Z,21.66
2023-05-01T10:29:15.597Z,21.90
2023-05-01T10:30:15.592Z,22.01
2023-05-01T10:31:15.631Z,22.06
2023-05-01T10:32:15.663Z,22.42
2023-05-01T10:33:15.788Z,20.18
2023-05-01T10:34:15.726Z,21.39
2023-05-01T10:35:15.730Z,21.96
2023-05-01T10:36:15.803Z,21.79
2023-05-01T10:37:15.771Z,20.35
2023-05-01T10:38:15.833Z,20.98
2023-05-01T10:39:15.850Z,21.50
2023-05-01T10:40:15.949Z,21.23
2023-05-01T10:41:15.853Z,21.53
2023-05-01T10:42:15.920Z,22.04
2023-05-01T10:43:16.011Z,22.58
2023-05-01T10:44:15.934Z,21.79
2023-05-01T10:45:15.996Z,22.42
2023-05-01T10:46:16.017Z,22.47
2023-05-01T10:47:16.045Z,22.68
2023-05-01T10:48:16.110Z,23.32
2023-05-01T10:49:16.124Z,23.25
2023-05-01T10:50:16.339Z,23.55
2023-05-01T10:51:16.130Z,22.66
2023-05-01T10:52:16.186Z,23.17
2023-05-01T10:53:16.210Z,23.15
2023-05-01T10:54:16.240Z,23.52
2023-05-01T10:55:16.268Z,21.77
2023-05-01T10:56:16.272Z,22.24
2023-05-01T10:57:16.321Z,22.09
2023-05-01T10:58:16.408Z,22.42
2023-05-01T10:59:16.400Z,22.47
2023-05-01T11:00:16.469Z,22.75
2023-05-01T11:01:16.574Z,22.46
2023-05-01T11:02:16.681Z,22.34
2023-05-01T11:03:16.632Z,22.40
2023-05-01T11:04:16.567Z,22.29
2023-05-01T11:05:21.685Z,22.36
2023-05-01T11:06:17.699Z,22.77
2023-05-01T11:07:16.687Z,22.61
2023-05-01T11:08:16.605Z,23.04
2023-05-01T11:09:16.611Z,23.17
2023-05-01T11:10:16.539Z,23.47
2023-05-01T11:11:16.547Z,22.31
2023-05-01T11:12:16.532Z,23.13
2023-05-01T11:13:16.624Z,23.24
2023-05-01T11:14:16.586Z,23.54
2023-05-01T11:15:16.559Z,23.59
2023-05-01T11:16:17.469Z,23.85
2023-05-01T11:17:16.526Z,24.06
2023-05-01T11:18:16.568Z,24.60
2023-05-01T11:19:16.501Z,21.82
2023-05-01T11:20:16.529Z,20.64
2023-05-01T11:21:16.594Z,21.19
2023-05-01T11:22:16.581Z,20.82
2023-05-01T11:23:16.639Z,20.67
2023-05-01T11:24:16.643Z,21.29
2023-05-01T11:25:16.679Z,21.93
2023-05-01T11:26:16.691Z,21.70
2023-05-01T11:27:16.699Z,21.93
2023-05-01T11:28:16.721Z,21.26
2023-05-01T11:29:16.744Z,20.96
2023-05-01T11:30:16.811Z,21.92
2023-05-01T11:31:16.839Z,22.34
2023-05-01T11:32:17.017Z,22.24
2023-05-01T11:33:16.960Z,21.60
2023-05-01T11:34:16.924Z,21.96
2023-05-01T11:35:16.958Z,22.07
2023-05-01T11:36:16.972Z,21.72
2023-05-01T11:37:17.056Z,22.19
2023-05-01T11:38:17.068Z,22.53
2023-05-01T11:39:17.124Z,22.84
2023-05-01T11:40:17.137Z,23.01
2023-05-01T11:41:18.720Z,23.32
2023-05-01T11:42:17.169Z,23.27
2023-05-01T11:43:17.125Z,22.64
2023-05-01T11:44:17.138Z,22.56
2023-05-01T11:45:17.134Z,22.50
2023-05-01T11:46:17.154Z,22.14
2023-05-01T11:47:17.211Z,22.37
2023-05-01T11:48:17.160Z,22.64
2023-05-01T11:49:17.110Z,22.95
2023-05-01T11:50:17.119Z,23.01
2023-05-01T11:51:17.100Z,23.13
2023-05-01T11:52:17.085Z,23.35
2023-05-01T11:53:17.072Z,23.04
2023-05-01T11:54:17.064Z,23.19
2023-05-01T11:55:17.065Z,23.72
2023-05-01T11:56:26.001Z,22.61
2023-05-01T11:57:18.027Z,22.72
2023-05-01T11:58:17.101Z,22.83
2023-05-01T11:59:17.132Z,23.04
2023-05-01T12:00:17.033Z,23.22
2023-05-01T12:01:17.026Z,23.49
2023-05-01T12:02:17.069Z,23.51
2023-05-01T12:03:17.280Z,24.05
2023-05-01T12:04:17.058Z,24.05
2023-05-01T12:05:17.030Z,23.86
2023-05-01T12:06:17.038Z,24.15
2023-05-01T12:07:17.017Z,23.45
2023-05-01T12:08:16.971Z,23.68
2023-05-01T12:09:17.098Z,23.25
2023-05-01T12:10:17.010Z,23.84
2023-05-01T12:11:17.012Z,23.61
2023-05-01T12:12:17.070Z,24.13
2023-05-01T12:13:17.119Z,23.25
2023-05-01T12:14:17.118Z,23.25
2023-05-01T12:15:17.117Z,21.77
2023-05-01T12:16:17.254Z,22.64
2023-05-01T12:17:17.225Z,22.42
2023-05-01T12:18:17.349Z,22.44
2023-05-01T12:19:17.253Z,22.88
2023-05-01T12:20:17.291Z,23.61
2023-05-01T12:21:17.321Z,23.71
2023-05-01T12:22:17.369Z,23.82
2023-05-01T12:23:17.379Z,23.74
2023-05-01T12:24:17.441Z,23.51
2023-05-01T12:25:17.483Z,23.47
2023-05-01T12:26:17.457Z,23.25
2023-05-01T12:27:17.523Z,23.01
2023-05-01T12:28:17.538Z,23.74
2023-05-01T12:29:17.594Z,23.11
2023-05-01T12:30:17.611Z,22.77
2023-05-01T12:31:17.648Z,22.06
2023-05-01T12:32:17.710Z,22.03
2023-05-01T12:33:17.781Z,22.03
2023-05-01T12:34:17.789Z,22.40
2023-05-01T12:35:17.807Z,22.29
2023-05-01T12:36:17.859Z,22.50
2023-05-01T12:37:17.870Z,21.79
2023-05-01T12:38:17.908Z,21.63
2023-05-01T12:39:17.951Z,21.83
2023-05-01T12:40:17.994Z,21.85
2023-05-01T12:41:17.977Z,21.43
2023-05-01T12:42:18.050Z,22.27
2023-05-01T12:43:18.050Z,21.01
2023-05-01T12:44:18.110Z,20.76
2023-05-01T12:45:18.058Z,21.01
2023-05-01T12:46:18.210Z,21.15
2023-05-01T12:47:18.168Z,21.56
2023-05-01T12:48:18.343Z,21.59
2023-05-01T12:49:18.208Z,20.93
2023-05-01T12:50:18.330Z,21.56
2023-05-01T12:51:18.324Z,21.80
2023-05-01T12:52:18.353Z,21.35
2023-05-01T12:53:18.410Z,21.25
2023-05-01T12:54:18.410Z,21.12